sensor_id;sensor_type;location;lat;lon;timestamp;P1;durP1;ratioP1;P2;durP2;ratioP2
18905;SDS011;9585;51.018;4.282;2022-09-03T00:01:52;1.92;;;1.42;;
18905;SDS011;9585;51.018;4.282;2022-09-03T00:04:31;3.50;;;1.40;;
18905;SDS011;9585;51.018;4.282;2022-09-03T00:07:11;3.20;;;1.60;;
18905;SDS011;9585;51.018;4.282;2022-09-03T00:09:43;2.58;;;1.40;;
18905;SDS011;9585;51.018;4.282;2022-09-03T00:12:14;1.67;;;1.25;;
18905;SDS011;9585;51.018;4.282;2022-09-03T00:14:46;1.98;;;1.30;;
18905;SDS011;9585;51.018;4.282;2022-09-03T00:17:18;3.75;;;1.52;;
18905;SDS011;9585;51.018;4.282;2022-09-03T00:19:53;3.35;;;1.38;;
18905;SDS011;9585;51.018;4.282;2022-09-03T00:22:23;3.58;;;1.67;;
18905;SDS011;9585;51.018;4.282;2022-09-03T00:24:53;1.40;;;1.30;;
18905;SDS011;9585;51.018;4.282;2022-09-03T00:27:24;3.80;;;1.45;;
18905;SDS011;9585;51.018;4.282;2022-09-03T00:29:54;2.67;;;1.42;;
18905;SDS011;9585;51.018;4.282;2022-09-03T00:32:26;2.20;;;1.35;;
18905;SDS011;9585;51.018;4.282;2022-09-03T00:35:05;2.80;;;1.60;;
18905;SDS011;9585;51.018;4.282;2022-09-03T00:37:38;1.50;;;1.40;;
18905;SDS011;9585;51.018;4.282;2022-09-03T00:40:06;1.73;;;1.50;;
18905;SDS011;9585;51.018;4.282;2022-09-03T00:42:43;1.90;;;1.60;;
18905;SDS011;9585;51.018;4.282;2022-09-03T00:45:23;2.00;;;1.67;;
18905;SDS011;9585;51.018;4.282;2022-09-03T00:48:01;1.38;;;1.27;;
18905;SDS011;9585;51.018;4.282;2022-09-03T00:50:43;1.55;;;1.45;;
18905;SDS011;9585;51.018;4.282;2022-09-03T00:53:25;4.10;;;1.48;;
18905;SDS011;9585;51.018;4.282;2022-09-03T00:55:57;4.40;;;1.73;;
18905;SDS011;9585;51.018;4.282;2022-09-03T00:58:38;1.60;;;1.50;;
18905;SDS011;9585;51.018;4.282;2022-09-03T01:01:20;3.20;;;1.70;;
18905;SDS011;9585;51.018;4.282;2022-09-03T01:03:57;3.80;;;1.50;;
18905;SDS011;9585;51.018;4.282;2022-09-03T01:06:34;1.95;;;1.40;;
18905;SDS011;9585;51.018;4.282;2022-09-03T01:09:16;2.30;;;1.50;;
18905;SDS011;9585;51.018;4.282;2022-09-03T01:11:58;3.28;;;1.50;;
18905;SDS011;9585;51.018;4.282;2022-09-03T01:14:34;1.90;;;1.40;;
18905;SDS011;9585;51.018;4.282;2022-09-03T01:17:12;2.47;;;1.55;;
18905;SDS011;9585;51.018;4.282;2022-09-03T01:19:55;2.42;;;1.65;;
18905;SDS011;9585;51.018;4.282;2022-09-03T01:22:46;1.73;;;1.58;;
18905;SDS011;9585;51.018;4.282;2022-09-03T01:25:34;2.03;;;1.60;;
18905;SDS011;9585;51.018;4.282;2022-09-03T01:28:17;2.35;;;1.40;;
18905;SDS011;9585;51.018;4.282;2022-09-03T01:31:00;1.52;;;1.25;;
18905;SDS011;9585;51.018;4.282;2022-09-03T01:33:37;1.35;;;1.20;;
18905;SDS011;9585;51.018;4.282;2022-09-03T01:36:11;1.55;;;1.40;;
18905;SDS011;9585;51.018;4.282;2022-09-03T01:38:48;1.80;;;1.38;;
18905;SDS011;9585;51.018;4.282;2022-09-03T01:41:20;1.98;;;1.50;;
18905;SDS011;9585;51.018;4.282;2022-09-03T01:44:17;1.52;;;1.42;;
18905;SDS011;9585;51.018;4.282;2022-09-03T01:46:54;1.60;;;1.25;;
18905;SDS011;9585;51.018;4.282;2022-09-03T01:49:33;1.67;;;1.40;;
18905;SDS011;9585;51.018;4.282;2022-09-03T01:52:08;1.73;;;1.50;;
18905;SDS011;9585;51.018;4.282;2022-09-03T01:54:50;1.67;;;1.40;;
18905;SDS011;9585;51.018;4.282;2022-09-03T01:57:30;1.85;;;1.40;;
18905;SDS011;9585;51.018;4.282;2022-09-03T02:00:08;2.15;;;1.25;;
18905;SDS011;9585;51.018;4.282;2022-09-03T02:02:38;1.50;;;1.40;;
18905;SDS011;9585;51.018;4.282;2022-09-03T02:05:07;1.77;;;1.40;;
18905;SDS011;9585;51.018;4.282;2022-09-03T02:07:37;1.48;;;1.30;;
18905;SDS011;9585;51.018;4.282;2022-09-03T02:10:07;1.50;;;1.40;;
18905;SDS011;9585;51.018;4.282;2022-09-03T02:12:36;1.85;;;1.50;;
18905;SDS011;9585;51.018;4.282;2022-09-03T02:15:09;1.42;;;1.30;;
18905;SDS011;9585;51.018;4.282;2022-09-03T02:17:39;2.30;;;1.60;;
18905;SDS011;9585;51.018;4.282;2022-09-03T02:20:08;1.63;;;1.52;;
18905;SDS011;9585;51.018;4.282;2022-09-03T02:22:39;1.98;;;1.40;;
18905;SDS011;9585;51.018;4.282;2022-09-03T02:25:07;2.08;;;1.30;;
18905;SDS011;9585;51.018;4.282;2022-09-03T02:27:36;1.60;;;1.35;;
18905;SDS011;9585;51.018;4.282;2022-09-03T02:30:04;2.42;;;1.50;;
18905;SDS011;9585;51.018;4.282;2022-09-03T02:32:33;1.85;;;1.40;;
18905;SDS011;9585;51.018;4.282;2022-09-03T02:35:01;2.70;;;1.40;;
18905;SDS011;9585;51.018;4.282;2022-09-03T02:37:28;1.70;;;1.60;;
18905;SDS011;9585;51.018;4.282;2022-09-03T02:39:55;3.33;;;1.70;;
18905;SDS011;9585;51.018;4.282;2022-09-03T02:42:22;2.00;;;1.45;;
18905;SDS011;9585;51.018;4.282;2022-09-03T02:44:51;1.45;;;1.33;;
18905;SDS011;9585;51.018;4.282;2022-09-03T02:47:20;1.60;;;1.50;;
18905;SDS011;9585;51.018;4.282;2022-09-03T02:49:56;1.50;;;1.30;;
18905;SDS011;9585;51.018;4.282;2022-09-03T02:52:23;1.88;;;1.60;;
18905;SDS011;9585;51.018;4.282;2022-09-03T02:54:50;2.05;;;1.42;;
18905;SDS011;9585;51.018;4.282;2022-09-03T02:57:17;1.77;;;1.67;;
18905;SDS011;9585;51.018;4.282;2022-09-03T02:59:45;1.50;;;1.40;;
18905;SDS011;9585;51.018;4.282;2022-09-03T03:02:12;4.40;;;1.55;;
18905;SDS011;9585;51.018;4.282;2022-09-03T03:04:39;1.95;;;1.40;;
18905;SDS011;9585;51.018;4.282;2022-09-03T03:07:08;2.25;;;1.60;;
18905;SDS011;9585;51.018;4.282;2022-09-03T03:09:35;1.55;;;1.20;;
18905;SDS011;9585;51.018;4.282;2022-09-03T03:12:02;1.38;;;1.20;;
18905;SDS011;9585;51.018;4.282;2022-09-03T03:14:31;1.35;;;1.13;;
18905;SDS011;9585;51.018;4.282;2022-09-03T03:16:58;2.05;;;1.42;;
18905;SDS011;9585;51.018;4.282;2022-09-03T03:19:25;1.50;;;1.40;;
18905;SDS011;9585;51.018;4.282;2022-09-03T03:21:53;1.20;;;1.10;;
18905;SDS011;9585;51.018;4.282;2022-09-03T03:24:21;2.75;;;1.35;;
18905;SDS011;9585;51.018;4.282;2022-09-03T03:26:48;1.42;;;1.30;;
18905;SDS011;9585;51.018;4.282;2022-09-03T03:29:16;1.50;;;1.40;;
18905;SDS011;9585;51.018;4.282;2022-09-03T03:31:43;1.65;;;1.40;;
18905;SDS011;9585;51.018;4.282;2022-09-03T03:34:11;1.88;;;1.40;;
18905;SDS011;9585;51.018;4.282;2022-09-03T03:36:38;1.67;;;1.40;;
18905;SDS011;9585;51.018;4.282;2022-09-03T03:39:05;1.42;;;1.33;;
18905;SDS011;9585;51.018;4.282;2022-09-03T03:41:34;2.30;;;1.33;;
18905;SDS011;9585;51.018;4.282;2022-09-03T03:44:02;1.40;;;1.30;;
18905;SDS011;9585;51.018;4.282;2022-09-03T03:46:32;1.70;;;1.60;;
18905;SDS011;9585;51.018;4.282;2022-09-03T03:49:01;3.42;;;1.48;;
18905;SDS011;9585;51.018;4.282;2022-09-03T03:51:30;1.70;;;1.50;;
18905;SDS011;9585;51.018;4.282;2022-09-03T03:53:58;1.60;;;1.50;;
18905;SDS011;9585;51.018;4.282;2022-09-03T03:56:25;2.45;;;1.60;;
18905;SDS011;9585;51.018;4.282;2022-09-03T03:58:54;2.13;;;1.50;;
18905;SDS011;9585;51.018;4.282;2022-09-03T04:01:22;1.90;;;1.40;;
18905;SDS011;9585;51.018;4.282;2022-09-03T04:03:50;2.88;;;1.75;;
18905;SDS011;9585;51.018;4.282;2022-09-03T04:06:20;2.55;;;1.60;;
18905;SDS011;9585;51.018;4.282;2022-09-03T04:08:48;2.47;;;1.60;;
18905;SDS011;9585;51.018;4.282;2022-09-03T04:11:16;2.22;;;1.80;;
18905;SDS011;9585;51.018;4.282;2022-09-03T04:13:45;1.70;;;1.60;;
18905;SDS011;9585;51.018;4.282;2022-09-03T04:16:15;2.38;;;1.70;;
18905;SDS011;9585;51.018;4.282;2022-09-03T04:18:43;1.77;;;1.48;;
18905;SDS011;9585;51.018;4.282;2022-09-03T04:21:13;2.50;;;1.70;;
18905;SDS011;9585;51.018;4.282;2022-09-03T04:23:42;2.05;;;1.67;;
18905;SDS011;9585;51.018;4.282;2022-09-03T04:26:11;2.03;;;1.45;;
18905;SDS011;9585;51.018;4.282;2022-09-03T04:28:40;2.65;;;1.70;;
18905;SDS011;9585;51.018;4.282;2022-09-03T04:31:10;2.20;;;1.80;;
18905;SDS011;9585;51.018;4.282;2022-09-03T04:33:40;7.20;;;1.83;;
18905;SDS011;9585;51.018;4.282;2022-09-03T04:36:09;3.78;;;1.80;;
18905;SDS011;9585;51.018;4.282;2022-09-03T04:38:37;4.82;;;1.90;;
18905;SDS011;9585;51.018;4.282;2022-09-03T04:41:06;5.60;;;2.10;;
18905;SDS011;9585;51.018;4.282;2022-09-03T04:43:34;6.43;;;2.10;;
18905;SDS011;9585;51.018;4.282;2022-09-03T04:46:03;5.00;;;2.20;;
18905;SDS011;9585;51.018;4.282;2022-09-03T04:48:32;6.82;;;2.22;;
18905;SDS011;9585;51.018;4.282;2022-09-03T04:51:04;4.80;;;1.92;;
18905;SDS011;9585;51.018;4.282;2022-09-03T04:53:33;3.60;;;1.73;;
18905;SDS011;9585;51.018;4.282;2022-09-03T04:56:01;2.33;;;1.50;;
18905;SDS011;9585;51.018;4.282;2022-09-03T04:58:29;2.10;;;1.33;;
18905;SDS011;9585;51.018;4.282;2022-09-03T05:00:56;5.40;;;2.20;;
18905;SDS011;9585;51.018;4.282;2022-09-03T05:03:23;2.22;;;1.70;;
18905;SDS011;9585;51.018;4.282;2022-09-03T05:05:51;2.45;;;1.80;;
18905;SDS011;9585;51.018;4.282;2022-09-03T05:08:20;2.97;;;1.92;;
18905;SDS011;9585;51.018;4.282;2022-09-03T05:10:48;3.42;;;2.00;;
18905;SDS011;9585;51.018;4.282;2022-09-03T05:13:15;2.40;;;2.10;;
18905;SDS011;9585;51.018;4.282;2022-09-03T05:15:42;2.90;;;2.00;;
18905;SDS011;9585;51.018;4.282;2022-09-03T05:18:09;3.20;;;2.20;;
18905;SDS011;9585;51.018;4.282;2022-09-03T05:20:38;2.45;;;2.25;;
18905;SDS011;9585;51.018;4.282;2022-09-03T05:23:05;6.43;;;2.40;;
18905;SDS011;9585;51.018;4.282;2022-09-03T05:25:34;3.65;;;2.20;;
18905;SDS011;9585;51.018;4.282;2022-09-03T05:28:02;4.00;;;2.55;;
18905;SDS011;9585;51.018;4.282;2022-09-03T05:30:29;2.63;;;2.30;;
18905;SDS011;9585;51.018;4.282;2022-09-03T05:32:56;2.90;;;2.40;;
18905;SDS011;9585;51.018;4.282;2022-09-03T05:35:23;5.10;;;2.47;;
18905;SDS011;9585;51.018;4.282;2022-09-03T05:37:53;2.67;;;2.47;;
18905;SDS011;9585;51.018;4.282;2022-09-03T05:40:21;2.63;;;2.17;;
18905;SDS011;9585;51.018;4.282;2022-09-03T05:42:54;4.68;;;2.70;;
18905;SDS011;9585;51.018;4.282;2022-09-03T05:45:23;5.28;;;2.72;;
18905;SDS011;9585;51.018;4.282;2022-09-03T05:47:50;4.03;;;2.78;;
18905;SDS011;9585;51.018;4.282;2022-09-03T05:50:17;5.32;;;2.50;;
18905;SDS011;9585;51.018;4.282;2022-09-03T05:52:45;4.22;;;2.53;;
18905;SDS011;9585;51.018;4.282;2022-09-03T05:55:12;3.03;;;2.60;;
18905;SDS011;9585;51.018;4.282;2022-09-03T05:57:39;2.75;;;2.55;;
18905;SDS011;9585;51.018;4.282;2022-09-03T06:00:09;4.72;;;3.17;;
18905;SDS011;9585;51.018;4.282;2022-09-03T06:02:37;4.47;;;2.70;;
18905;SDS011;9585;51.018;4.282;2022-09-03T06:05:04;3.35;;;2.58;;
18905;SDS011;9585;51.018;4.282;2022-09-03T06:07:32;6.00;;;2.65;;
18905;SDS011;9585;51.018;4.282;2022-09-03T06:09:59;6.03;;;2.75;;
18905;SDS011;9585;51.018;4.282;2022-09-03T06:12:28;5.03;;;3.10;;
18905;SDS011;9585;51.018;4.282;2022-09-03T06:14:56;9.88;;;3.28;;
18905;SDS011;9585;51.018;4.282;2022-09-03T06:17:24;6.18;;;3.30;;
18905;SDS011;9585;51.018;4.282;2022-09-03T06:19:51;6.30;;;3.00;;
18905;SDS011;9585;51.018;4.282;2022-09-03T06:22:19;4.78;;;3.20;;
18905;SDS011;9585;51.018;4.282;2022-09-03T06:24:49;4.95;;;3.40;;
18905;SDS011;9585;51.018;4.282;2022-09-03T06:27:16;4.05;;;3.05;;
18905;SDS011;9585;51.018;4.282;2022-09-03T06:29:45;4.10;;;3.22;;
18905;SDS011;9585;51.018;4.282;2022-09-03T06:32:12;3.50;;;2.88;;
18905;SDS011;9585;51.018;4.282;2022-09-03T06:34:41;3.40;;;3.03;;
18905;SDS011;9585;51.018;4.282;2022-09-03T06:37:08;6.00;;;3.00;;
18905;SDS011;9585;51.018;4.282;2022-09-03T06:39:35;3.00;;;2.70;;
18905;SDS011;9585;51.018;4.282;2022-09-03T06:42:03;3.40;;;2.80;;
18905;SDS011;9585;51.018;4.282;2022-09-03T06:44:30;3.20;;;2.80;;
18905;SDS011;9585;51.018;4.282;2022-09-03T06:46:57;3.45;;;2.95;;
18905;SDS011;9585;51.018;4.282;2022-09-03T06:49:25;4.80;;;3.20;;
18905;SDS011;9585;51.018;4.282;2022-09-03T06:51:54;4.38;;;3.05;;
18905;SDS011;9585;51.018;4.282;2022-09-03T06:54:21;4.57;;;3.28;;
18905;SDS011;9585;51.018;4.282;2022-09-03T06:56:49;3.95;;;3.33;;
18905;SDS011;9585;51.018;4.282;2022-09-03T06:59:16;3.75;;;3.08;;
18905;SDS011;9585;51.018;4.282;2022-09-03T07:01:44;4.20;;;2.90;;
18905;SDS011;9585;51.018;4.282;2022-09-03T07:04:12;3.70;;;2.85;;
18905;SDS011;9585;51.018;4.282;2022-09-03T07:06:41;4.80;;;2.65;;
18905;SDS011;9585;51.018;4.282;2022-09-03T07:09:11;3.42;;;2.60;;
18905;SDS011;9585;51.018;4.282;2022-09-03T07:11:39;3.97;;;2.78;;
18905;SDS011;9585;51.018;4.282;2022-09-03T07:14:10;3.58;;;2.80;;
18905;SDS011;9585;51.018;4.282;2022-09-03T07:16:38;3.47;;;2.70;;
18905;SDS011;9585;51.018;4.282;2022-09-03T07:19:07;3.42;;;2.60;;
18905;SDS011;9585;51.018;4.282;2022-09-03T07:21:35;3.33;;;2.67;;
18905;SDS011;9585;51.018;4.282;2022-09-03T07:24:03;3.15;;;2.80;;
18905;SDS011;9585;51.018;4.282;2022-09-03T07:26:33;2.90;;;2.70;;
18905;SDS011;9585;51.018;4.282;2022-09-03T07:29:02;3.47;;;2.80;;
18905;SDS011;9585;51.018;4.282;2022-09-03T07:31:32;3.35;;;3.05;;
18905;SDS011;9585;51.018;4.282;2022-09-03T07:34:02;4.65;;;3.13;;
18905;SDS011;9585;51.018;4.282;2022-09-03T07:36:34;3.35;;;3.05;;
18905;SDS011;9585;51.018;4.282;2022-09-03T07:39:03;4.38;;;2.80;;
18905;SDS011;9585;51.018;4.282;2022-09-03T07:41:30;3.88;;;3.22;;
18905;SDS011;9585;51.018;4.282;2022-09-03T07:43:59;6.45;;;3.67;;
18905;SDS011;9585;51.018;4.282;2022-09-03T07:46:30;6.45;;;4.30;;
18905;SDS011;9585;51.018;4.282;2022-09-03T07:48:59;6.05;;;3.97;;
18905;SDS011;9585;51.018;4.282;2022-09-03T07:51:28;7.35;;;3.75;;
18905;SDS011;9585;51.018;4.282;2022-09-03T07:53:57;5.00;;;4.10;;
18905;SDS011;9585;51.018;4.282;2022-09-03T07:56:26;6.00;;;4.40;;
18905;SDS011;9585;51.018;4.282;2022-09-03T07:58:56;4.07;;;3.50;;
18905;SDS011;9585;51.018;4.282;2022-09-03T08:01:25;4.68;;;3.30;;
18905;SDS011;9585;51.018;4.282;2022-09-03T08:03:55;6.30;;;3.65;;
18905;SDS011;9585;51.018;4.282;2022-09-03T08:06:23;5.50;;;4.00;;
18905;SDS011;9585;51.018;4.282;2022-09-03T08:08:55;6.47;;;3.58;;
18905;SDS011;9585;51.018;4.282;2022-09-03T08:11:23;3.85;;;3.35;;
18905;SDS011;9585;51.018;4.282;2022-09-03T08:13:53;5.43;;;3.65;;
18905;SDS011;9585;51.018;4.282;2022-09-03T08:16:27;4.10;;;3.30;;
18905;SDS011;9585;51.018;4.282;2022-09-03T08:18:55;6.45;;;4.18;;
18905;SDS011;9585;51.018;4.282;2022-09-03T08:21:22;4.40;;;3.75;;
18905;SDS011;9585;51.018;4.282;2022-09-03T08:23:51;4.85;;;3.80;;
18905;SDS011;9585;51.018;4.282;2022-09-03T08:26:26;4.30;;;3.50;;
18905;SDS011;9585;51.018;4.282;2022-09-03T08:28:55;5.15;;;3.50;;
18905;SDS011;9585;51.018;4.282;2022-09-03T08:31:22;5.15;;;3.70;;
18905;SDS011;9585;51.018;4.282;2022-09-03T08:33:54;5.85;;;3.78;;
18905;SDS011;9585;51.018;4.282;2022-09-03T08:36:23;5.68;;;3.20;;
18905;SDS011;9585;51.018;4.282;2022-09-03T08:38:51;4.75;;;3.20;;
18905;SDS011;9585;51.018;4.282;2022-09-03T08:41:22;3.65;;;2.90;;
18905;SDS011;9585;51.018;4.282;2022-09-03T08:44:05;5.15;;;2.75;;
18905;SDS011;9585;51.018;4.282;2022-09-03T08:46:44;4.70;;;2.90;;
18905;SDS011;9585;51.018;4.282;2022-09-03T08:49:20;4.85;;;2.83;;
18905;SDS011;9585;51.018;4.282;2022-09-03T08:51:52;4.13;;;2.58;;
18905;SDS011;9585;51.018;4.282;2022-09-03T08:54:23;4.07;;;2.55;;
18905;SDS011;9585;51.018;4.282;2022-09-03T08:56:54;2.80;;;2.60;;
18905;SDS011;9585;51.018;4.282;2022-09-03T08:59:23;3.40;;;2.50;;
18905;SDS011;9585;51.018;4.282;2022-09-03T09:01:51;7.25;;;2.80;;
18905;SDS011;9585;51.018;4.282;2022-09-03T09:04:29;5.47;;;3.20;;
18905;SDS011;9585;51.018;4.282;2022-09-03T09:07:07;4.43;;;3.40;;
18905;SDS011;9585;51.018;4.282;2022-09-03T09:09:41;4.72;;;2.78;;
18905;SDS011;9585;51.018;4.282;2022-09-03T09:12:17;4.70;;;3.20;;
18905;SDS011;9585;51.018;4.282;2022-09-03T09:14:51;6.30;;;3.63;;
18905;SDS011;9585;51.018;4.282;2022-09-03T09:17:36;3.55;;;2.75;;
18905;SDS011;9585;51.018;4.282;2022-09-03T09:20:17;4.13;;;3.42;;
18905;SDS011;9585;51.018;4.282;2022-09-03T09:22:53;4.85;;;3.70;;
18905;SDS011;9585;51.018;4.282;2022-09-03T09:25:23;5.65;;;3.95;;
18905;SDS011;9585;51.018;4.282;2022-09-03T09:27:53;4.38;;;3.20;;
18905;SDS011;9585;51.018;4.282;2022-09-03T09:30:24;5.18;;;3.35;;
18905;SDS011;9585;51.018;4.282;2022-09-03T09:32:52;5.28;;;3.35;;
18905;SDS011;9585;51.018;4.282;2022-09-03T09:35:22;4.72;;;3.35;;
18905;SDS011;9585;51.018;4.282;2022-09-03T09:37:50;6.53;;;3.80;;
18905;SDS011;9585;51.018;4.282;2022-09-03T09:40:22;4.13;;;3.63;;
18905;SDS011;9585;51.018;4.282;2022-09-03T09:43:03;5.53;;;3.40;;
18905;SDS011;9585;51.018;4.282;2022-09-03T09:45:31;3.83;;;3.50;;
18905;SDS011;9585;51.018;4.282;2022-09-03T09:47:59;4.18;;;3.80;;
18905;SDS011;9585;51.018;4.282;2022-09-03T09:50:29;4.20;;;2.90;;
18905;SDS011;9585;51.018;4.282;2022-09-03T09:53:00;4.70;;;3.00;;
18905;SDS011;9585;51.018;4.282;2022-09-03T09:55:34;4.78;;;3.28;;
18905;SDS011;9585;51.018;4.282;2022-09-03T09:58:06;4.63;;;3.95;;
18905;SDS011;9585;51.018;4.282;2022-09-03T10:00:35;4.47;;;4.07;;
18905;SDS011;9585;51.018;4.282;2022-09-03T10:03:09;4.10;;;3.30;;
18905;SDS011;9585;51.018;4.282;2022-09-03T10:05:39;3.90;;;3.40;;
18905;SDS011;9585;51.018;4.282;2022-09-03T10:08:17;5.10;;;4.10;;
18905;SDS011;9585;51.018;4.282;2022-09-03T10:10:46;4.20;;;3.60;;
18905;SDS011;9585;51.018;4.282;2022-09-03T10:13:16;5.68;;;4.03;;
18905;SDS011;9585;51.018;4.282;2022-09-03T10:15:47;4.95;;;3.92;;
18905;SDS011;9585;51.018;4.282;2022-09-03T10:18:21;4.30;;;3.75;;
18905;SDS011;9585;51.018;4.282;2022-09-03T10:20:57;3.80;;;3.50;;
18905;SDS011;9585;51.018;4.282;2022-09-03T10:23:31;8.00;;;4.28;;
18905;SDS011;9585;51.018;4.282;2022-09-03T10:26:09;5.85;;;3.72;;
18905;SDS011;9585;51.018;4.282;2022-09-03T10:28:39;4.03;;;3.40;;
18905;SDS011;9585;51.018;4.282;2022-09-03T10:31:17;4.40;;;3.30;;
18905;SDS011;9585;51.018;4.282;2022-09-03T10:33:55;3.03;;;2.50;;
18905;SDS011;9585;51.018;4.282;2022-09-03T10:36:30;3.15;;;2.60;;
18905;SDS011;9585;51.018;4.282;2022-09-03T10:39:03;2.95;;;2.65;;
18905;SDS011;9585;51.018;4.282;2022-09-03T10:41:39;3.58;;;3.17;;
18905;SDS011;9585;51.018;4.282;2022-09-03T10:44:28;2.95;;;2.45;;
18905;SDS011;9585;51.018;4.282;2022-09-03T10:47:07;3.67;;;2.40;;
18905;SDS011;9585;51.018;4.282;2022-09-03T10:49:47;3.00;;;2.50;;
18905;SDS011;9585;51.018;4.282;2022-09-03T10:52:22;3.42;;;2.95;;
18905;SDS011;9585;51.018;4.282;2022-09-03T10:55:08;4.70;;;2.97;;
18905;SDS011;9585;51.018;4.282;2022-09-03T10:57:45;3.60;;;3.05;;
18905;SDS011;9585;51.018;4.282;2022-09-03T11:00:17;4.25;;;3.20;;
18905;SDS011;9585;51.018;4.282;2022-09-03T11:05:55;3.47;;;2.80;;
18905;SDS011;9585;51.018;4.282;2022-09-03T11:08:31;4.03;;;3.05;;
18905;SDS011;9585;51.018;4.282;2022-09-03T11:11:10;4.35;;;3.20;;
18905;SDS011;9585;51.018;4.282;2022-09-03T11:13:45;3.47;;;3.00;;
18905;SDS011;9585;51.018;4.282;2022-09-03T11:16:19;4.82;;;3.20;;
18905;SDS011;9585;51.018;4.282;2022-09-03T11:18:53;3.45;;;2.75;;
18905;SDS011;9585;51.018;4.282;2022-09-03T11:21:23;3.08;;;2.53;;
18905;SDS011;9585;51.018;4.282;2022-09-03T11:23:57;3.05;;;2.38;;
18905;SDS011;9585;51.018;4.282;2022-09-03T11:26:35;2.95;;;2.65;;
18905;SDS011;9585;51.018;4.282;2022-09-03T11:29:05;3.00;;;2.80;;
18905;SDS011;9585;51.018;4.282;2022-09-03T11:31:44;4.00;;;2.78;;
18905;SDS011;9585;51.018;4.282;2022-09-03T11:34:26;3.38;;;2.88;;
18905;SDS011;9585;51.018;4.282;2022-09-03T11:37:06;3.10;;;2.83;;
18905;SDS011;9585;51.018;4.282;2022-09-03T11:39:55;4.32;;;3.58;;
18905;SDS011;9585;51.018;4.282;2022-09-03T11:42:29;4.40;;;3.35;;
18905;SDS011;9585;51.018;4.282;2022-09-03T11:45:00;3.42;;;3.00;;
18905;SDS011;9585;51.018;4.282;2022-09-03T11:47:42;4.32;;;3.10;;
18905;SDS011;9585;51.018;4.282;2022-09-03T11:50:16;3.92;;;3.10;;
18905;SDS011;9585;51.018;4.282;2022-09-03T11:52:46;3.42;;;3.22;;
18905;SDS011;9585;51.018;4.282;2022-09-03T11:55:27;3.78;;;3.38;;
18905;SDS011;9585;51.018;4.282;2022-09-03T11:57:56;4.57;;;3.92;;
18905;SDS011;9585;51.018;4.282;2022-09-03T12:00:24;3.35;;;2.90;;
18905;SDS011;9585;51.018;4.282;2022-09-03T12:02:56;3.58;;;3.28;;
18905;SDS011;9585;51.018;4.282;2022-09-03T12:05:30;4.00;;;3.60;;
18905;SDS011;9585;51.018;4.282;2022-09-03T12:08:31;3.30;;;3.10;;
18905;SDS011;9585;51.018;4.282;2022-09-03T12:11:37;4.57;;;3.13;;
18905;SDS011;9585;51.018;4.282;2022-09-03T12:14:17;2.85;;;2.65;;
18905;SDS011;9585;51.018;4.282;2022-09-03T12:19:46;2.80;;;2.60;;
18905;SDS011;9585;51.018;4.282;2022-09-03T12:22:20;3.80;;;2.80;;
18905;SDS011;9585;51.018;4.282;2022-09-03T12:24:53;3.40;;;2.55;;
18905;SDS011;9585;51.018;4.282;2022-09-03T12:27:23;2.80;;;2.50;;
18905;SDS011;9585;51.018;4.282;2022-09-03T12:29:53;4.13;;;2.75;;
18905;SDS011;9585;51.018;4.282;2022-09-03T12:32:24;3.65;;;2.72;;
18905;SDS011;9585;51.018;4.282;2022-09-03T12:34:54;3.50;;;3.20;;
18905;SDS011;9585;51.018;4.282;2022-09-03T12:37:22;3.17;;;2.92;;
18905;SDS011;9585;51.018;4.282;2022-09-03T12:39:52;3.15;;;2.85;;
18905;SDS011;9585;51.018;4.282;2022-09-03T12:42:26;3.50;;;3.20;;
18905;SDS011;9585;51.018;4.282;2022-09-03T12:44:55;3.67;;;3.35;;
18905;SDS011;9585;51.018;4.282;2022-09-03T12:47:36;3.60;;;3.30;;
18905;SDS011;9585;51.018;4.282;2022-09-03T12:50:07;4.63;;;3.25;;
18905;SDS011;9585;51.018;4.282;2022-09-03T12:52:36;3.30;;;2.80;;
18905;SDS011;9585;51.018;4.282;2022-09-03T12:55:09;3.35;;;3.03;;
18905;SDS011;9585;51.018;4.282;2022-09-03T12:57:48;3.90;;;3.50;;
18905;SDS011;9585;51.018;4.282;2022-09-03T13:00:20;3.40;;;3.10;;
18905;SDS011;9585;51.018;4.282;2022-09-03T13:02:49;3.50;;;3.20;;
18905;SDS011;9585;51.018;4.282;2022-09-03T13:05:20;3.13;;;2.92;;
18905;SDS011;9585;51.018;4.282;2022-09-03T13:07:53;3.50;;;2.63;;
18905;SDS011;9585;51.018;4.282;2022-09-03T13:10:26;3.22;;;2.92;;
18905;SDS011;9585;51.018;4.282;2022-09-03T13:12:58;3.70;;;3.38;;
18905;SDS011;9585;51.018;4.282;2022-09-03T13:15:27;3.35;;;3.05;;
18905;SDS011;9585;51.018;4.282;2022-09-03T13:18:07;3.72;;;3.08;;
18905;SDS011;9585;51.018;4.282;2022-09-03T13:23:36;3.00;;;2.80;;
18905;SDS011;9585;51.018;4.282;2022-09-03T13:26:23;3.50;;;3.20;;
18905;SDS011;9585;51.018;4.282;2022-09-03T13:29:04;3.00;;;2.80;;
18905;SDS011;9585;51.018;4.282;2022-09-03T13:31:56;3.40;;;3.10;;
18905;SDS011;9585;51.018;4.282;2022-09-03T13:34:30;3.13;;;2.92;;
18905;SDS011;9585;51.018;4.282;2022-09-03T13:37:03;3.38;;;3.03;;
18905;SDS011;9585;51.018;4.282;2022-09-03T13:39:40;2.80;;;2.60;;
18905;SDS011;9585;51.018;4.282;2022-09-03T13:42:17;4.00;;;3.33;;
18905;SDS011;9585;51.018;4.282;2022-09-03T13:44:54;3.15;;;2.95;;
18905;SDS011;9585;51.018;4.282;2022-09-03T13:47:27;3.28;;;2.97;;
18905;SDS011;9585;51.018;4.282;2022-09-03T13:50:00;3.50;;;3.20;;
18905;SDS011;9585;51.018;4.282;2022-09-03T13:52:48;2.88;;;2.65;;
18905;SDS011;9585;51.018;4.282;2022-09-03T13:55:23;3.47;;;2.90;;
18905;SDS011;9585;51.018;4.282;2022-09-03T13:58:01;2.80;;;2.60;;
18905;SDS011;9585;51.018;4.282;2022-09-03T14:00:36;3.22;;;2.85;;
18905;SDS011;9585;51.018;4.282;2022-09-03T14:03:09;3.60;;;3.20;;
18905;SDS011;9585;51.018;4.282;2022-09-03T14:05:53;3.20;;;2.90;;
18905;SDS011;9585;51.018;4.282;2022-09-03T14:08:29;3.40;;;3.10;;
18905;SDS011;9585;51.018;4.282;2022-09-03T14:11:03;3.38;;;3.08;;
18905;SDS011;9585;51.018;4.282;2022-09-03T14:13:43;4.47;;;3.28;;
18905;SDS011;9585;51.018;4.282;2022-09-03T14:16:23;3.55;;;3.25;;
18905;SDS011;9585;51.018;4.282;2022-09-03T14:18:55;4.78;;;3.42;;
18905;SDS011;9585;51.018;4.282;2022-09-03T14:21:27;3.47;;;3.17;;
18905;SDS011;9585;51.018;4.282;2022-09-03T14:24:03;4.07;;;3.20;;
18905;SDS011;9585;51.018;4.282;2022-09-03T14:26:48;3.55;;;3.25;;
18905;SDS011;9585;51.018;4.282;2022-09-03T14:29:18;3.60;;;3.30;;
18905;SDS011;9585;51.018;4.282;2022-09-03T14:31:58;3.58;;;3.28;;
18905;SDS011;9585;51.018;4.282;2022-09-03T14:34:37;3.50;;;3.20;;
18905;SDS011;9585;51.018;4.282;2022-09-03T14:37:22;4.05;;;3.35;;
18905;SDS011;9585;51.018;4.282;2022-09-03T14:40:03;5.82;;;3.45;;
18905;SDS011;9585;51.018;4.282;2022-09-03T14:45:40;3.17;;;2.70;;
18905;SDS011;9585;51.018;4.282;2022-09-03T14:48:43;5.88;;;2.75;;
18905;SDS011;9585;51.018;4.282;2022-09-03T14:51:30;2.75;;;2.47;;
18905;SDS011;9585;51.018;4.282;2022-09-03T14:57:15;2.72;;;2.53;;
18905;SDS011;9585;51.018;4.282;2022-09-03T15:00:01;2.38;;;2.17;;
18905;SDS011;9585;51.018;4.282;2022-09-03T15:05:56;2.38;;;2.17;;
18905;SDS011;9585;51.018;4.282;2022-09-03T15:08:41;2.25;;;2.05;;
18905;SDS011;9585;51.018;4.282;2022-09-03T15:11:17;2.33;;;2.13;;
18905;SDS011;9585;51.018;4.282;2022-09-03T15:13:48;2.30;;;2.10;;
18905;SDS011;9585;51.018;4.282;2022-09-03T15:16:22;2.78;;;2.30;;
18905;SDS011;9585;51.018;4.282;2022-09-03T15:19:07;3.50;;;2.15;;
18905;SDS011;9585;51.018;4.282;2022-09-03T15:22:00;2.20;;;2.00;;
18905;SDS011;9585;51.018;4.282;2022-09-03T15:24:44;3.03;;;1.98;;
18905;SDS011;9585;51.018;4.282;2022-09-03T15:27:30;2.00;;;1.80;;
18905;SDS011;9585;51.018;4.282;2022-09-03T15:30:13;3.05;;;2.13;;
18905;SDS011;9585;51.018;4.282;2022-09-03T15:32:56;2.20;;;2.00;;
18905;SDS011;9585;51.018;4.282;2022-09-03T15:35:34;2.08;;;1.90;;
18905;SDS011;9585;51.018;4.282;2022-09-03T15:38:23;2.25;;;2.10;;
18905;SDS011;9585;51.018;4.282;2022-09-03T15:41:08;2.03;;;1.85;;
18905;SDS011;9585;51.018;4.282;2022-09-03T15:43:43;3.38;;;2.00;;
18905;SDS011;9585;51.018;4.282;2022-09-03T15:46:28;1.92;;;1.83;;
18905;SDS011;9585;51.018;4.282;2022-09-03T15:49:29;2.38;;;1.80;;
18905;SDS011;9585;51.018;4.282;2022-09-03T15:52:09;1.73;;;1.63;;
18905;SDS011;9585;51.018;4.282;2022-09-03T15:54:52;1.80;;;1.70;;